createdAt,value
2023-05-05T00:01:43.850Z,2.60
2023-05-05T00:04:10.461Z,2.35
2023-05-05T00:06:38.586Z,2.37
2023-05-05T00:09:05.160Z,2.53
2023-05-05T00:11:33.102Z,2.40
2023-05-05T00:13:59.837Z,2.63
2023-05-05T00:16:26.439Z,2.45
2023-05-05T00:18:53.057Z,2.60
2023-05-05T00:21:19.592Z,2.78
2023-05-05T00:23:46.238Z,2.67
2023-05-05T00:26:12.999Z,2.50
2023-05-05T00:28:40.917Z,2.53
2023-05-05T00:31:07.768Z,2.43
2023-05-05T00:33:34.401Z,2.40
2023-05-05T00:36:00.967Z,2.42
2023-05-05T00:38:27.527Z,2.50
2023-05-05T00:40:55.132Z,2.70
2023-05-05T00:43:21.654Z,2.30
2023-05-05T00:45:58.086Z,2.50
2023-05-05T00:48:25.257Z,2.90
2023-05-05T00:50:52.059Z,2.50
2023-05-05T00:53:18.938Z,2.70
2023-05-05T00:55:45.539Z,2.73
2023-05-05T00:58:12.233Z,2.88
2023-05-05T01:00:38.815Z,2.65
2023-05-05T01:03:06.793Z,2.50
2023-05-05T01:05:47.216Z,2.85
2023-05-05T01:08:29.102Z,2.90
2023-05-05T01:11:03.000Z,2.60
2023-05-05T01:13:42.683Z,2.95
2023-05-05T01:16:15.049Z,3.00
2023-05-05T01:18:51.606Z,2.75
2023-05-05T01:21:22.567Z,2.70
2023-05-05T01:24:22.149Z,2.75
2023-05-05T01:26:58.200Z,2.85
2023-05-05T01:29:41.262Z,2.70
2023-05-05T01:32:11.733Z,2.60
2023-05-05T01:34:44.409Z,2.90
2023-05-05T01:37:24.466Z,2.65
2023-05-05T01:39:55.410Z,2.95
2023-05-05T01:42:23.957Z,3.03
2023-05-05T01:44:52.737Z,2.67
2023-05-05T01:47:22.793Z,2.97
2023-05-05T01:49:53.503Z,2.95
2023-05-05T01:52:21.957Z,3.00
2023-05-05T01:54:50.508Z,2.90
2023-05-05T01:57:18.760Z,3.10
2023-05-05T01:59:45.374Z,3.20
2023-05-05T02:02:13.383Z,2.97
2023-05-05T02:04:44.362Z,2.88
2023-05-05T02:07:13.209Z,3.05
2023-05-05T02:09:42.410Z,3.20
2023-05-05T02:12:10.849Z,3.07
2023-05-05T02:14:38.902Z,3.10
2023-05-05T02:17:05.334Z,3.25
2023-05-05T02:19:38.327Z,3.15
2023-05-05T02:22:06.314Z,3.20
2023-05-05T02:24:33.024Z,3.47
2023-05-05T02:27:02.711Z,3.30
2023-05-05T02:29:34.276Z,3.70
2023-05-05T02:32:05.026Z,3.47
2023-05-05T02:34:36.627Z,3.15
2023-05-05T02:37:09.690Z,3.90
2023-05-05T02:39:41.208Z,3.35
2023-05-05T02:42:10.632Z,3.60
2023-05-05T02:44:41.132Z,3.58
2023-05-05T02:47:08.387Z,3.45
2023-05-05T02:49:36.215Z,3.53
2023-05-05T02:52:03.084Z,3.80
2023-05-05T02:54:31.730Z,3.50
2023-05-05T02:56:59.388Z,3.92
2023-05-05T02:59:33.385Z,3.78
2023-05-05T03:02:08.078Z,3.77
2023-05-05T03:04:39.864Z,3.90
2023-05-05T03:07:12.121Z,3.70
2023-05-05T03:09:46.576Z,3.80
2023-05-05T03:12:18.416Z,3.50
2023-05-05T03:14:46.954Z,3.73
2023-05-05T03:17:17.345Z,3.35
2023-05-05T03:19:44.647Z,3.55
2023-05-05T03:22:12.630Z,3.92
2023-05-05T03:24:39.169Z,3.88
2023-05-05T03:27:07.507Z,3.50
2023-05-05T03:29:34.082Z,3.85
2023-05-05T03:32:00.665Z,3.45
2023-05-05T03:34:27.311Z,4.00
2023-05-05T03:36:53.868Z,4.05
2023-05-05T03:39:20.557Z,3.73
2023-05-05T03:41:47.135Z,3.90
2023-05-05T03:44:15.166Z,3.75
2023-05-05T03:46:41.764Z,4.00
2023-05-05T03:49:08.341Z,4.38
2023-05-05T03:51:35.036Z,4.30
2023-05-05T03:54:01.577Z,4.70
2023-05-05T03:56:28.154Z,4.40
2023-05-05T03:58:55.091Z,4.72
2023-05-05T04:01:22.967Z,4.95
2023-05-05T04:03:49.758Z,4.60
2023-05-05T04:06:16.353Z,5.18
2023-05-05T04:08:43.030Z,4.75
2023-05-05T04:11:09.713Z,5.20
2023-05-05T04:13:36.243Z,5.20
2023-05-05T04:16:03.141Z,5.53
2023-05-05T04:18:31.048Z,5.13
2023-05-05T04:20:57.718Z,5.50
2023-05-05T04:23:24.317Z,5.30
2023-05-05T04:25:50.882Z,5.05
2023-05-05T04:28:19.089Z,5.60
2023-05-05T04:30:47.612Z,5.28
2023-05-05T04:33:14.177Z,6.20
2023-05-05T04:35:42.161Z,5.60
2023-05-05T04:38:08.735Z,5.45
2023-05-05T04:40:38.612Z,5.70
2023-05-05T04:43:05.138Z,5.30
2023-05-05T04:45:31.809Z,5.63
2023-05-05T04:47:58.424Z,5.43
2023-05-05T04:50:24.955Z,5.60
2023-05-05T04:52:53.058Z,5.70
2023-05-05T04:55:21.708Z,5.65
2023-05-05T04:57:48.264Z,4.88
2023-05-05T05:00:15.395Z,5.07
2023-05-05T05:02:42.004Z,5.30
2023-05-05T05:05:09.590Z,5.00
2023-05-05T05:07:36.171Z,5.53
2023-05-05T05:10:04.725Z,5.80
2023-05-05T05:12:31.356Z,5.40
2023-05-05T05:14:57.887Z,5.55
2023-05-05T05:17:24.506Z,5.50
2023-05-05T05:19:51.083Z,5.45
2023-05-05T05:22:17.656Z,5.35
2023-05-05T05:24:44.260Z,5.70
2023-05-05T05:27:12.277Z,5.68
2023-05-05T05:29:39.446Z,5.83
2023-05-05T05:32:06.153Z,5.78
2023-05-05T05:34:32.696Z,6.00
2023-05-05T05:36:59.352Z,7.38
2023-05-05T05:39:25.847Z,6.15
2023-05-05T05:41:52.358Z,5.73
2023-05-05T05:44:20.378Z,6.00
2023-05-05T05:46:46.966Z,6.63
2023-05-05T05:49:13.495Z,6.38
2023-05-05T05:51:40.006Z,6.63
2023-05-05T05:54:06.529Z,6.57
2023-05-05T05:56:33.172Z,6.80
2023-05-05T05:58:59.762Z,7.00
2023-05-05T06:01:27.662Z,7.00
2023-05-05T06:03:54.253Z,7.25
2023-05-05T06:06:20.804Z,7.57
2023-05-05T06:08:47.331Z,7.63
2023-05-05T06:11:13.821Z,6.97
2023-05-05T06:13:40.382Z,7.68
2023-05-05T06:16:07.807Z,7.50
2023-05-05T06:18:35.852Z,8.37
2023-05-05T06:21:02.588Z,8.15
2023-05-05T06:23:29.172Z,8.27
2023-05-05T06:25:55.957Z,8.43
2023-05-05T06:28:22.614Z,8.32
2023-05-05T06:30:49.755Z,7.97
2023-05-05T06:33:16.334Z,7.38
2023-05-05T06:35:44.240Z,9.00
2023-05-05T06:38:11.226Z,8.65
2023-05-05T06:40:37.791Z,8.73
2023-05-05T06:43:04.731Z,8.70
2023-05-05T06:45:31.633Z,8.80
2023-05-05T06:47:58.264Z,8.07
2023-05-05T06:50:24.894Z,8.80
2023-05-05T06:52:52.819Z,7.50
2023-05-05T06:55:19.502Z,8.10
2023-05-05T06:57:46.320Z,8.60
2023-05-05T07:00:14.218Z,8.38
2023-05-05T07:02:41.025Z,7.60
2023-05-05T07:05:08.143Z,8.38
2023-05-05T07:07:35.102Z,7.93
2023-05-05T07:10:03.104Z,7.40
2023-05-05T07:12:30.517Z,7.95
2023-05-05T07:14:57.144Z,7.72
2023-05-05T07:17:23.836Z,7.75
2023-05-05T07:19:52.509Z,8.73
2023-05-05T07:22:19.115Z,7.63
2023-05-05T07:24:45.698Z,8.40
2023-05-05T07:27:14.045Z,7.18
2023-05-05T07:29:41.088Z,7.00
2023-05-05T07:32:07.887Z,7.43
2023-05-05T07:34:34.596Z,7.70
2023-05-05T07:37:01.393Z,6.93
2023-05-05T07:39:28.126Z,5.38
2023-05-05T07:41:54.797Z,4.75
2023-05-05T07:44:22.788Z,4.97
2023-05-05T07:46:49.718Z,4.28
2023-05-05T07:49:16.176Z,4.50
2023-05-05T07:51:42.968Z,4.28
2023-05-05T07:54:09.613Z,4.10
2023-05-05T07:56:36.220Z,4.20
2023-05-05T07:59:03.217Z,4.85
2023-05-05T08:01:31.178Z,4.30
2023-05-05T08:03:57.878Z,4.60
2023-05-05T08:06:24.518Z,4.22
2023-05-05T08:08:51.559Z,4.00
2023-05-05T08:11:18.101Z,3.90
2023-05-05T08:13:44.800Z,4.25
2023-05-05T08:16:11.865Z,4.40
2023-05-05T08:18:39.843Z,3.97
2023-05-05T08:21:07.334Z,4.53
2023-05-05T08:23:34.550Z,4.25
2023-05-05T08:26:01.238Z,4.40
2023-05-05T08:28:28.018Z,5.53
2023-05-05T08:30:55.064Z,4.95
2023-05-05T08:33:24.149Z,5.43
2023-05-05T08:35:52.216Z,4.70
2023-05-05T08:38:18.810Z,5.22
2023-05-05T08:40:46.691Z,4.70
2023-05-05T08:43:13.570Z,5.10
2023-05-05T08:45:41.346Z,4.90
2023-05-05T08:48:09.041Z,4.70
2023-05-05T08:50:36.440Z,5.57
2023-05-05T08:53:09.473Z,5.88
2023-05-05T08:55:41.225Z,6.15
2023-05-05T08:58:09.457Z,6.17
2023-05-05T09:00:36.570Z,7.07
2023-05-05T09:03:04.770Z,6.68
2023-05-05T09:05:31.619Z,6.85
2023-05-05T09:07:58.978Z,6.28
2023-05-05T09:10:30.978Z,6.17
2023-05-05T09:12:57.785Z,6.07
2023-05-05T09:15:24.721Z,4.88
2023-05-05T09:17:51.486Z,4.43
2023-05-05T09:20:18.216Z,4.30
2023-05-05T09:22:46.305Z,4.97
2023-05-05T09:25:14.352Z,6.90
2023-05-05T09:27:44.341Z,6.60
2023-05-05T09:30:14.184Z,5.75
2023-05-05T09:32:45.857Z,5.57
2023-05-05T09:35:12.697Z,5.03
2023-05-05T09:37:39.674Z,4.80
2023-05-05T09:40:07.439Z,5.03
2023-05-05T09:42:35.489Z,4.55
2023-05-05T09:45:04.006Z,4.30
2023-05-05T09:47:35.039Z,4.53
2023-05-05T09:50:02.325Z,4.72
2023-05-05T09:52:29.025Z,4.72
2023-05-05T09:54:56.604Z,4.60
2023-05-05T09:57:27.723Z,5.10
2023-05-05T09:59:59.326Z,5.23
2023-05-05T10:02:35.692Z,4.88
2023-05-05T10:05:05.638Z,4.10
2023-05-05T10:07:32.639Z,4.35
2023-05-05T10:09:59.195Z,4.13
2023-05-05T10:12:27.009Z,3.73
2023-05-05T10:14:55.888Z,4.43
2023-05-05T10:17:23.536Z,4.38
2023-05-05T10:19:56.294Z,4.38
2023-05-05T10:22:23.616Z,5.00
2023-05-05T10:24:56.723Z,5.13
2023-05-05T10:27:26.236Z,4.78
2023-05-05T10:29:57.485Z,4.65
2023-05-05T10:32:51.999Z,5.22
2023-05-05T10:35:20.710Z,5.38
2023-05-05T10:37:48.369Z,4.63
2023-05-05T10:40:15.597Z,4.80
2023-05-05T10:42:42.385Z,5.05
2023-05-05T10:45:10.026Z,4.60
2023-05-05T10:47:38.295Z,4.38
2023-05-05T10:50:12.537Z,4.83
2023-05-05T10:52:47.777Z,4.95
2023-05-05T10:55:17.854Z,5.45
2023-05-05T10:57:45.784Z,4.60
2023-05-05T11:00:46.121Z,4.65
2023-05-05T11:03:23.077Z,4.53
2023-05-05T11:06:08.742Z,3.95
2023-05-05T11:08:37.586Z,4.43
2023-05-05T11:11:05.788Z,3.55
2023-05-05T11:13:32.677Z,3.50
2023-05-05T11:16:00.325Z,3.47
2023-05-05T11:18:37.538Z,3.20
2023-05-05T11:21:09.519Z,3.30
2023-05-05T11:23:37.536Z,3.78
2023-05-05T11:26:04.264Z,3.10
2023-05-05T11:28:31.561Z,3.47
2023-05-05T11:31:17.900Z,3.25
2023-05-05T11:33:44.832Z,2.85
2023-05-05T11:36:13.061Z,2.80
2023-05-05T11:39:18.398Z,3.00
2023-05-05T11:42:16.644Z,2.40
2023-05-05T11:44:43.265Z,2.80
2023-05-05T11:47:31.978Z,1.50
2023-05-05T11:49:59.215Z,1.40
2023-05-05T11:52:26.483Z,1.17
2023-05-05T11:55:00.227Z,1.43
2023-05-05T11:57:30.454Z,1.42
2023-05-05T11:59:59.404Z,1.42
2023-05-05T12:02:30.813Z,1.50
2023-05-05T12:05:01.203Z,1.77
2023-05-05T12:07:30.324Z,1.97
2023-05-05T12:09:58.843Z,1.60
2023-05-05T12:12:36.290Z,1.70
2023-05-05T12:15:04.371Z,1.42
2023-05-05T12:17:41.506Z,1.58
2023-05-05T12:20:10.005Z,1.50
2023-05-05T12:22:37.498Z,1.40
2023-05-05T12:25:07.307Z,1.73
2023-05-05T12:27:34.104Z,1.50
2023-05-05T12:30:12.361Z,1.63
2023-05-05T12:32:39.131Z,1.50
2023-05-05T12:35:07.319Z,1.35
2023-05-05T12:37:34.440Z,1.65
2023-05-05T12:40:01.070Z,2.00
2023-05-05T12:42:29.125Z,1.80
2023-05-05T12:44:55.712Z,1.70
2023-05-05T12:47:32.606Z,2.28
2023-05-05T12:49:59.832Z,2.00
2023-05-05T12:52:41.089Z,1.60
2023-05-05T12:55:11.019Z,1.98
2023-05-05T12:57:39.504Z,1.50
2023-05-05T13:00:14.382Z,1.63
2023-05-05T13:02:45.053Z,1.75
2023-05-05T13:05:11.697Z,1.83
2023-05-05T13:07:50.206Z,1.70
2023-05-05T13:10:16.773Z,1.50
2023-05-05T13:12:44.752Z,2.15
2023-05-05T13:15:12.799Z,2.03
2023-05-05T13:17:39.383Z,1.95
2023-05-05T13:20:07.724Z,2.00
2023-05-05T13:22:34.776Z,2.50
2023-05-05T13:25:01.304Z,2.38
2023-05-05T13:27:28.032Z,2.63
2023-05-05T13:29:55.958Z,2.90
2023-05-05T13:32:22.588Z,3.10
2023-05-05T13:34:49.206Z,2.63
2023-05-05T13:37:15.780Z,3.42
2023-05-05T13:39:42.672Z,2.97
2023-05-05T13:42:09.257Z,2.55
2023-05-05T13:44:35.860Z,5.03
2023-05-05T13:47:03.955Z,3.30
2023-05-05T13:49:30.765Z,3.13
2023-05-05T13:51:57.330Z,3.42
2023-05-05T13:54:24.105Z,3.40
2023-05-05T13:56:50.832Z,3.67
2023-05-05T13:59:17.399Z,4.13
2023-05-05T14:01:44.045Z,3.72
2023-05-05T14:04:12.048Z,3.17
2023-05-05T14:06:38.628Z,3.90
2023-05-05T14:09:05.263Z,3.40
2023-05-05T14:11:31.808Z,3.60
2023-05-05T14:13:58.428Z,3.88
2023-05-05T14:16:25.051Z,3.65
2023-05-05T14:18:52.249Z,3.88
2023-05-05T14:21:20.171Z,3.70
2023-05-05T14:23:46.743Z,3.97
2023-05-05T14:26:13.349Z,3.03
2023-05-05T14:28:39.909Z,3.50
2023-05-05T14:31:06.575Z,3.08
2023-05-05T14:33:33.281Z,3.75
2023-05-05T14:35:59.981Z,3.47
2023-05-05T14:38:27.921Z,3.67
2023-05-05T14:40:54.734Z,3.13
2023-05-05T14:43:21.339Z,3.55
2023-05-05T14:45:47.982Z,3.33
2023-05-05T14:48:14.576Z,3.40
2023-05-05T14:50:41.238Z,3.38
2023-05-05T14:53:08.173Z,3.65
2023-05-05T14:55:36.067Z,3.10
2023-05-05T14:58:02.651Z,3.67
2023-05-05T15:00:29.254Z,3.10
2023-05-05T15:02:56.159Z,3.03
2023-05-05T15:05:22.911Z,3.30
2023-05-05T15:07:49.462Z,3.25
2023-05-05T15:10:16.146Z,3.15
2023-05-05T15:12:44.119Z,3.70
2023-05-05T15:15:11.468Z,3.00
2023-05-05T15:17:38.232Z,2.70
2023-05-05T15:20:06.554Z,2.20
2023-05-05T15:22:33.640Z,2.22
2023-05-05T15:25:00.285Z,1.60
2023-05-05T15:27:27.031Z,1.42
2023-05-05T15:29:55.009Z,1.23
2023-05-05T15:32:21.595Z,1.50
2023-05-05T15:34:50.199Z,1.45
2023-05-05T15:37:17.156Z,1.47
2023-05-05T15:39:43.790Z,1.58
2023-05-05T15:42:10.394Z,1.50
2023-05-05T15:44:36.954Z,1.73
2023-05-05T15:47:05.140Z,2.10
2023-05-05T15:49:31.900Z,2.00
2023-05-05T15:51:58.709Z,2.00
2023-05-05T15:54:25.328Z,2.08
2023-05-05T15:56:51.904Z,1.73
2023-05-05T15:59:19.249Z,2.08
2023-05-05T16:01:46.104Z,2.33
2023-05-05T16:04:14.232Z,1.80
2023-05-05T16:06:40.868Z,1.80
2023-05-05T16:09:07.559Z,2.13
2023-05-05T16:11:34.370Z,1.50
2023-05-05T16:14:01.011Z,1.70
2023-05-05T16:16:27.574Z,1.50
2023-05-05T16:18:54.267Z,1.50
2023-05-05T16:21:22.399Z,1.60
2023-05-05T16:23:49.067Z,2.25
2023-05-05T16:26:16.364Z,3.70
2023-05-05T16:28:42.990Z,3.13
2023-05-05T16:31:09.604Z,3.25
2023-05-05T16:33:36.309Z,4.07
2023-05-05T16:36:02.968Z,4.25
2023-05-05T16:38:30.867Z,3.93
2023-05-05T16:40:57.611Z,3.75
2023-05-05T16:43:24.181Z,3.30
2023-05-05T16:45:50.871Z,3.05
2023-05-05T16:48:17.534Z,3.35
2023-05-05T16:50:44.086Z,3.70
2023-05-05T16:53:10.718Z,4.20
2023-05-05T16:55:38.629Z,3.72
2023-05-05T16:58:05.369Z,3.83
2023-05-05T17:00:31.950Z,2.70
2023-05-05T17:02:58.584Z,2.40
2023-05-05T17:05:25.310Z,2.50
2023-05-05T17:07:51.900Z,2.25
2023-05-05T17:10:18.444Z,2.50
2023-05-05T17:12:46.433Z,2.20
2023-05-05T17:15:13.057Z,1.90
2023-05-05T17:17:41.534Z,1.90
2023-05-05T17:20:10.712Z,1.90
2023-05-05T17:22:37.301Z,1.40
2023-05-05T17:25:04.398Z,1.58
2023-05-05T17:27:32.054Z,1.50
2023-05-05T17:30:00.044Z,1.73
2023-05-05T17:32:26.810Z,1.90
2023-05-05T17:34:53.618Z,1.45
2023-05-05T17:37:20.319Z,1.60
2023-05-05T17:39:47.212Z,1.57
2023-05-05T17:42:14.067Z,2.00
2023-05-05T17:44:40.699Z,2.20
2023-05-05T17:47:08.770Z,1.85
2023-05-05T17:49:35.436Z,2.20
2023-05-05T17:52:02.074Z,2.20
2023-05-05T17:54:28.934Z,2.25
2023-05-05T17:56:55.480Z,2.30
2023-05-05T17:59:22.042Z,2.85
2023-05-05T18:01:48.725Z,2.35
2023-05-05T18:04:16.755Z,2.60
2023-05-05T18:06:45.992Z,2.80
2023-05-05T18:09:12.741Z,3.10
2023-05-05T18:11:41.661Z,3.10
2023-05-05T18:14:08.345Z,2.80
2023-05-05T18:16:34.903Z,2.80
2023-05-05T18:19:01.574Z,2.60
2023-05-05T18:21:29.513Z,3.05
2023-05-05T18:24:01.698Z,2.88
2023-05-05T18:26:34.675Z,2.58
2023-05-05T18:29:01.263Z,2.50
2023-05-05T18:31:27.969Z,2.42
2023-05-05T18:33:54.972Z,2.65
2023-05-05T18:36:21.560Z,2.78
2023-05-05T18:38:49.624Z,2.60
2023-05-05T18:41:16.331Z,2.93
2023-05-05T18:43:42.914Z,2.80
2023-05-05T18:46:09.463Z,2.70
2023-05-05T18:48:36.377Z,2.90
2023-05-05T18:51:03.453Z,3.08
2023-05-05T18:53:30.475Z,3.93
2023-05-05T18:55:58.848Z,5.05
2023-05-05T18:58:25.572Z,5.40
2023-05-05T19:00:52.325Z,5.68
2023-05-05T19:03:19.966Z,5.60
2023-05-05T19:05:46.523Z,5.97
2023-05-05T19:08:13.109Z,5.80
2023-05-05T19:10:39.863Z,5.65
2023-05-05T19:13:08.953Z,5.40
2023-05-05T19:15:35.546Z,5.65
2023-05-05T19:18:02.130Z,5.77
2023-05-05T19:20:28.953Z,5.45
2023-05-05T19:22:55.544Z,6.20
2023-05-05T19:25:22.133Z,6.30
2023-05-05T19:27:48.968Z,6.65
2023-05-05T19:30:16.970Z,7.27
2023-05-05T19:32:43.551Z,6.82
2023-05-05T19:35:10.560Z,6.85
2023-05-05T19:37:37.405Z,7.40
2023-05-05T19:40:05.282Z,7.07
2023-05-05T19:42:32.099Z,7.40
2023-05-05T19:44:58.680Z,7.53
2023-05-05T19:47:26.633Z,7.53
2023-05-05T19:49:53.265Z,7.43
2023-05-05T19:52:19.818Z,7.55
2023-05-05T19:54:46.655Z,7.27
2023-05-05T19:57:13.376Z,7.55
2023-05-05T19:59:39.977Z,7.88
2023-05-05T20:02:06.635Z,7.65
2023-05-05T20:04:34.628Z,8.00
2023-05-05T20:07:01.255Z,7.90
2023-05-05T20:09:27.853Z,8.85
2023-05-05T20:11:55.958Z,9.52
2023-05-05T20:14:22.527Z,8.98
2023-05-05T20:16:49.159Z,9.00
2023-05-05T20:19:15.835Z,8.83
2023-05-05T20:21:43.771Z,8.98
2023-05-05T20:24:10.331Z,9.13
2023-05-05T20:26:36.953Z,9.70
2023-05-05T20:29:03.511Z,10.00
2023-05-05T20:31:30.236Z,9.27
2023-05-05T20:33:56.964Z,9.45
2023-05-05T20:36:23.491Z,10.95
2023-05-05T20:38:51.471Z,10.45
2023-05-05T20:41:18.085Z,10.48
2023-05-05T20:43:44.831Z,9.80
2023-05-05T20:46:13.070Z,9.95
2023-05-05T20:48:42.386Z,9.73
2023-05-05T20:51:11.823Z,9.48
2023-05-05T20:53:38.629Z,10.43
2023-05-05T20:56:08.678Z,10.33
2023-05-05T20:58:35.819Z,10.18
2023-05-05T21:01:02.465Z,10.75
2023-05-05T21:03:29.066Z,11.35
2023-05-05T21:05:55.744Z,11.20
2023-05-05T21:08:22.378Z,11.67
2023-05-05T21:10:48.969Z,11.65
2023-05-05T21:13:16.887Z,12.82
2023-05-05T21:15:43.497Z,13.07
2023-05-05T21:18:10.056Z,13.68
2023-05-05T21:20:36.589Z,13.37
2023-05-05T21:23:03.777Z,12.55
2023-05-05T21:25:30.593Z,13.43
2023-05-05T21:27:57.149Z,12.93
2023-05-05T21:30:25.204Z,13.15
2023-05-05T21:32:52.027Z,13.57
2023-05-05T21:35:18.773Z,12.95
2023-05-05T21:37:45.394Z,13.60
2023-05-05T21:40:12.757Z,14.23
2023-05-05T21:42:42.178Z,14.35
2023-05-05T21:45:10.081Z,14.10
2023-05-05T21:47:38.042Z,13.60
2023-05-05T21:50:05.205Z,13.93
2023-05-05T21:52:31.801Z,13.80
2023-05-05T21:54:58.381Z,14.45
2023-05-05T21:57:25.012Z,13.73
2023-05-05T21:59:52.023Z,13.15
2023-05-05T22:02:18.661Z,14.35
2023-05-05T22:04:46.596Z,13.85
2023-05-05T22:07:13.243Z,13.63
2023-05-05T22:09:39.819Z,14.47
2023-05-05T22:12:06.540Z,14.75
2023-05-05T22:14:33.123Z,15.23
2023-05-05T22:16:59.689Z,14.25
2023-05-05T22:19:26.338Z,15.55
2023-05-05T22:21:54.266Z,15.47
2023-05-05T22:24:20.947Z,15.85
2023-05-05T22:26:47.509Z,17.42
2023-05-05T22:29:14.078Z,17.35
2023-05-05T22:31:40.795Z,16.80
2023-05-05T22:34:07.797Z,18.03
2023-05-05T22:36:36.029Z,17.52
2023-05-05T22:39:38.981Z,18.05
2023-05-05T22:42:28.766Z,17.77
2023-05-05T22:44:56.485Z,18.33
2023-05-05T22:47:23.108Z,21.57
2023-05-05T22:52:36.155Z,18.20
2023-05-05T22:55:04.900Z,17.00
2023-05-05T22:57:31.462Z,17.55
2023-05-05T22:59:58.112Z,17.37
2023-05-05T23:02:26.349Z,16.77
2023-05-05T23:04:53.171Z,16.90
2023-05-05T23:07:20.802Z,16.85
2023-05-05T23:09:47.860Z,17.05
2023-05-05T23:12:15.793Z,16.37
2023-05-05T23:14:42.384Z,16.58
2023-05-05T23:17:09.441Z,15.93
2023-05-05T23:19:36.794Z,16.95
2023-05-05T23:22:04.599Z,18.10
2023-05-05T23:24:31.192Z,16.60
2023-05-05T23:26:59.272Z,17.95
2023-05-05T23:29:27.360Z,17.15
2023-05-05T23:31:53.959Z,17.73
2023-05-05T23:34:20.581Z,16.55
2023-05-05T23:36:47.724Z,16.83
2023-05-05T23:39:14.457Z,15.50
2023-05-05T23:41:40.999Z,16.25
2023-05-05T23:44:07.602Z,15.23
2023-05-05T23:46:35.681Z,15.45
2023-05-05T23:49:02.311Z,14.77
2023-05-05T23:51:29.020Z,15.30
2023-05-05T23:53:56.859Z,15.13
2023-05-05T23:56:23.571Z,14.25
2023-05-05T23:58:50.214Z,14.93
